Time;durP1;ratioP1;P1;durP2;ratioP2;P2;SDS_P1;SDS_P2;PMS_P1;PMS_P2;Temp;Humidity;BMP_temperature;BMP_pressure;BME280_temperature;BME280_humidity;BME280_pressure;Samples;Min_cycle;Max_cycle;Signal;HPM_P1;HPM_P2
2022/03/11 00:01:59;;;;;;;17.58;15.35;;;;;;;;;;10287672;28;20031;-70
2022/03/11 00:07:00;;;;;;;17.23;15.50;;;;;;;;;;10302639;28;20027;-70
2022/03/11 00:12:00;;;;;;;17.88;14.70;;;;;;;;;;10286857;28;20018;-75
2022/03/11 00:17:02;;;;;;;13.80;10.97;;;;;;;;;;10302539;28;20049;-69
2022/03/11 00:22:02;;;;;;;14.25;12.75;;;;;;;;;;10286509;28;20023;-72
2022/03/11 00:27:02;;;;;;;18.98;14.48;;;;;;;;;;10301825;28;20513;-74
2022/03/11 00:32:03;;;;;;;14.23;12.67;;;;;;;;;;10286644;28;20031;-74
2022/03/11 00:37:03;;;;;;;14.52;13.20;;;;;;;;;;10300893;28;20528;-74
2022/03/11 00:42:03;;;;;;;19.00;13.93;;;;;;;;;;10289078;28;20022;-70
2022/03/11 00:47:04;;;;;;;17.23;15.65;;;;;;;;;;10285307;28;20035;-74
2022/03/11 00:52:04;;;;;;;13.03;11.63;;;;;;;;;;10300877;28;20050;-73
2022/03/11 00:57:05;;;;;;;14.88;13.15;;;;;;;;;;10247461;28;20257;-70
2022/03/11 01:02:06;;;;;;;19.02;13.88;;;;;;;;;;10267130;28;20476;-72
2022/03/11 01:07:06;;;;;;;21.83;15.32;;;;;;;;;;10285101;28;20082;-71
2022/03/11 01:12:07;;;;;;;18.50;16.58;;;;;;;;;;10300419;28;20050;-75
2022/03/11 01:17:07;;;;;;;19.50;16.33;;;;;;;;;;10300259;28;20439;-73
2022/03/11 01:22:08;;;;;;;25.50;15.07;;;;;;;;;;10299952;28;20485;-72
2022/03/11 01:27:08;;;;;;;22.40;12.40;;;;;;;;;;10299575;28;20308;-71
2022/03/11 01:32:08;;;;;;;15.85;14.23;;;;;;;;;;10298352;28;20298;-71
2022/03/11 01:37:09;;;;;;;19.47;15.93;;;;;;;;;;10299424;28;20069;-74
2022/03/11 01:42:10;;;;;;;18.67;14.23;;;;;;;;;;10283370;28;20274;-75
2022/03/11 01:47:10;;;;;;;16.98;13.90;;;;;;;;;;10299771;28;20035;-71
2022/03/11 01:52:14;;;;;;;16.03;14.73;;;;;;;;;;10282963;28;20027;-71
2022/03/11 01:57:15;;;;;;;15.23;13.63;;;;;;;;;;10299327;28;20619;-70
2022/03/11 02:02:15;;;;;;;15.98;13.82;;;;;;;;;;10282941;28;20138;-72
2022/03/11 02:07:15;;;;;;;12.17;11.07;;;;;;;;;;10283762;28;20452;-74
2022/03/11 02:12:28;;;;;;;12.57;11.13;;;;;;;;;;10250662;28;20305;-70
2022/03/11 02:17:29;;;;;;;17.15;15.68;;;;;;;;;;10251728;29;20023;-69
2022/03/11 02:22:33;;;;;;;15.77;14.65;;;;;;;;;;10251817;29;20054;-70
2022/03/11 02:27:34;;;;;;;15.20;14.13;;;;;;;;;;10266439;28;20121;-70
2022/03/11 02:32:35;;;;;;;14.43;13.50;;;;;;;;;;10295227;28;20127;-71
2022/03/11 02:37:35;;;;;;;17.70;16.30;;;;;;;;;;10290397;28;20147;-74
2022/03/11 02:42:36;;;;;;;18.25;16.88;;;;;;;;;;10289923;28;20452;-70
2022/03/11 02:47:36;;;;;;;12.57;10.60;;;;;;;;;;10305644;28;20027;-74
2022/03/11 02:52:36;;;;;;;12.73;11.45;;;;;;;;;;10289307;28;20274;-71
2022/03/11 02:57:37;;;;;;;16.05;14.70;;;;;;;;;;10305622;28;20046;-69
2022/03/11 03:02:37;;;;;;;18.90;17.48;;;;;;;;;;10304961;28;20055;-73
2022/03/11 03:07:37;;;;;;;14.85;13.23;;;;;;;;;;10305027;28;20023;-69
2022/03/11 03:12:38;;;;;;;10.03;9.37;;;;;;;;;;10305008;28;20015;-70
2022/03/11 03:17:38;;;;;;;15.60;13.82;;;;;;;;;;10304749;28;20027;-71
2022/03/11 03:22:39;;;;;;;14.65;13.13;;;;;;;;;;10303662;28;20026;-69
2022/03/11 03:27:39;;;;;;;11.57;10.50;;;;;;;;;;10288117;28;20054;-74
2022/03/11 03:32:43;;;;;;;13.67;12.87;;;;;;;;;;10303398;28;20030;-70
2022/03/11 03:37:43;;;;;;;18.23;15.00;;;;;;;;;;10297607;28;20401;-69
2022/03/11 03:42:47;;;;;;;14.13;12.90;;;;;;;;;;10303716;28;20069;-70
2022/03/11 03:47:47;;;;;;;21.00;19.23;;;;;;;;;;10303678;28;20290;-71
2022/03/11 03:52:47;;;;;;;13.38;12.18;;;;;;;;;;10303300;28;20572;-70
2022/03/11 03:57:48;;;;;;;12.50;11.50;;;;;;;;;;10303363;28;20030;-70
2022/03/11 04:02:49;;;;;;;11.13;10.00;;;;;;;;;;10302394;28;20026;-70
2022/03/11 04:07:49;;;;;;;22.20;20.63;;;;;;;;;;10302426;28;20404;-73
2022/03/11 04:12:50;;;;;;;25.10;23.48;;;;;;;;;;10302424;28;20019;-70
2022/03/11 04:17:50;;;;;;;16.83;15.38;;;;;;;;;;10302284;28;20376;-71
2022/03/11 04:22:51;;;;;;;17.93;14.33;;;;;;;;;;10302252;28;20113;-71
2022/03/11 04:27:51;;;;;;;17.38;16.00;;;;;;;;;;10301905;28;20050;-74
2022/03/11 04:32:51;;;;;;;19.65;17.58;;;;;;;;;;10300808;28;20372;-71
2022/03/11 04:37:52;;;;;;;19.80;18.20;;;;;;;;;;10284729;28;20019;-75
2022/03/11 04:42:52;;;;;;;18.20;16.63;;;;;;;;;;10300798;28;20424;-75
2022/03/11 04:47:52;;;;;;;22.10;19.93;;;;;;;;;;10286253;28;20421;-72
2022/03/11 04:52:53;;;;;;;21.15;19.55;;;;;;;;;;10286255;28;20500;-71
2022/03/11 04:57:53;;;;;;;36.40;33.63;;;;;;;;;;10276483;28;20078;-71
2022/03/11 05:02:54;;;;;;;24.23;22.35;;;;;;;;;;10280282;28;20018;-70
2022/03/11 05:07:55;;;;;;;27.25;17.42;;;;;;;;;;10284488;28;20070;-71
2022/03/11 05:12:55;;;;;;;18.27;16.73;;;;;;;;;;10299015;28;20101;-71
2022/03/11 05:17:55;;;;;;;23.80;21.80;;;;;;;;;;10300076;28;20011;-71
2022/03/11 05:22:56;;;;;;;30.75;28.63;;;;;;;;;;10283420;28;20030;-73
2022/03/11 05:27:56;;;;;;;20.73;19.13;;;;;;;;;;10299580;28;20070;-70
2022/03/11 05:32:56;;;;;;;27.90;26.15;;;;;;;;;;10283518;28;20531;-74
2022/03/11 05:37:57;;;;;;;23.30;20.98;;;;;;;;;;10298914;28;20025;-72
2022/03/11 05:42:57;;;;;;;36.07;24.40;;;;;;;;;;10282863;28;20448;-70
2022/03/11 05:47:57;;;;;;;24.30;22.17;;;;;;;;;;10298367;28;20479;-70
2022/03/11 05:52:58;;;;;;;20.67;17.88;;;;;;;;;;10281995;28;20492;-73
2022/03/11 05:57:58;;;;;;;26.23;23.90;;;;;;;;;;10277546;28;20027;-74
2022/03/11 06:02:58;;;;;;;19.23;17.52;;;;;;;;;;10292271;28;20121;-75
2022/03/11 06:07:59;;;;;;;20.58;18.02;;;;;;;;;;10297028;28;20045;-71
2022/03/11 06:12:59;;;;;;;28.90;15.95;;;;;;;;;;10282487;28;20023;-69
2022/03/11 06:18:00;;;;;;;23.92;15.23;;;;;;;;;;10295075;28;20027;-70
2022/03/11 06:23:01;;;;;;;17.23;10.93;;;;;;;;;;10280203;28;20445;-74
2022/03/11 06:28:01;;;;;;;28.07;15.53;;;;;;;;;;10278652;28;20055;-70
2022/03/11 06:33:01;;;;;;;30.40;18.02;;;;;;;;;;10273424;28;20278;-70
2022/03/11 06:38:02;;;;;;;28.37;22.13;;;;;;;;;;10281410;28;20066;-70
2022/03/11 06:43:03;;;;;;;31.17;15.33;;;;;;;;;;10281243;28;20037;-73
2022/03/11 06:48:03;;;;;;;22.35;14.05;;;;;;;;;;10285413;28;20477;-73
2022/03/11 06:53:04;;;;;;;27.02;12.45;;;;;;;;;;10281917;28;20189;-74
2022/03/11 06:58:04;;;;;;;15.57;12.32;;;;;;;;;;10287976;28;20414;-71
2022/03/11 07:03:04;;;;;;;14.00;8.95;;;;;;;;;;10287544;28;20023;-72
2022/03/11 07:08:05;;;;;;;10.27;6.33;;;;;;;;;;10297452;28;20034;-73
2022/03/11 07:13:05;;;;;;;19.85;9.32;;;;;;;;;;10296401;28;20023;-74
2022/03/11 07:18:05;;;;;;;31.83;11.13;;;;;;;;;;10283812;28;20027;-72
2022/03/11 07:23:05;;;;;;;20.45;10.07;;;;;;;;;;10285100;28;20022;-70
2022/03/11 07:28:06;;;;;;;22.57;10.03;;;;;;;;;;10285152;28;20046;-74
2022/03/11 07:33:07;;;;;;;15.55;8.32;;;;;;;;;;10288068;28;20101;-70
2022/03/11 07:38:08;;;;;;;14.38;8.63;;;;;;;;;;10285213;28;20114;-74
2022/03/11 07:43:09;;;;;;;13.73;7.30;;;;;;;;;;10283743;28;20386;-75
2022/03/11 07:48:10;;;;;;;16.48;7.60;;;;;;;;;;10299945;28;20464;-70
2022/03/11 07:53:10;;;;;;;14.65;8.70;;;;;;;;;;10299609;28;20026;-74
2022/03/11 07:58:10;;;;;;;13.30;8.05;;;;;;;;;;10283455;28;20018;-71
2022/03/11 08:03:11;;;;;;;15.37;8.13;;;;;;;;;;10284859;28;20030;-74
2022/03/11 08:08:11;;;;;;;14.85;7.32;;;;;;;;;;10298985;28;20436;-71
2022/03/11 08:13:11;;;;;;;14.43;7.17;;;;;;;;;;10283706;28;20038;-74
2022/03/11 08:18:12;;;;;;;16.88;7.72;;;;;;;;;;10300700;28;20023;-74
2022/03/11 08:23:12;;;;;;;12.52;6.50;;;;;;;;;;10285438;28;20022;-70
2022/03/11 08:28:13;;;;;;;12.63;8.02;;;;;;;;;;10286006;28;20612;-75
2022/03/11 08:33:14;;;;;;;11.13;6.18;;;;;;;;;;10297644;28;20125;-74
2022/03/11 08:38:14;;;;;;;12.32;6.60;;;;;;;;;;10297860;28;20019;-77
2022/03/11 08:43:14;;;;;;;11.93;6.63;;;;;;;;;;10297855;28;20049;-70
2022/03/11 08:48:14;;;;;;;10.38;6.18;;;;;;;;;;10301643;28;20266;-71
2022/03/11 08:53:16;;;;;;;20.92;7.80;;;;;;;;;;10300915;28;20781;-71
2022/03/11 08:58:16;;;;;;;15.75;7.28;;;;;;;;;;10300784;28;20034;-74
2022/03/11 09:03:17;;;;;;;19.07;8.63;;;;;;;;;;10300757;28;20030;-79
2022/03/11 09:08:17;;;;;;;9.85;6.85;;;;;;;;;;10286099;28;20328;-75
2022/03/11 09:13:17;;;;;;;12.40;8.20;;;;;;;;;;10283475;28;20181;-72
2022/03/11 09:18:18;;;;;;;17.83;7.68;;;;;;;;;;10298427;28;20477;-73
2022/03/11 09:23:18;;;;;;;23.58;7.38;;;;;;;;;;10298773;28;20113;-74
2022/03/11 09:28:18;;;;;;;22.15;8.25;;;;;;;;;;10298580;28;20057;-71
2022/03/11 09:33:18;;;;;;;11.27;6.88;;;;;;;;;;10299007;28;20031;-70
2022/03/11 09:38:19;;;;;;;10.10;6.70;;;;;;;;;;10298957;28;20038;-72
2022/03/11 09:43:19;;;;;;;12.95;8.10;;;;;;;;;;10299140;28;20101;-72
2022/03/11 09:48:20;;;;;;;14.20;7.18;;;;;;;;;;10298618;28;20031;-74
2022/03/11 09:53:21;;;;;;;19.90;7.38;;;;;;;;;;10298195;28;20027;-71
2022/03/11 09:58:21;;;;;;;14.05;7.75;;;;;;;;;;10281998;28;20493;-70
2022/03/11 10:03:22;;;;;;;13.77;8.07;;;;;;;;;;10297652;28;20027;-75
2022/03/11 10:08:36;;;;;;;13.43;7.93;;;;;;;;;;10298673;28;20042;-72
2022/03/11 10:13:37;;;;;;;18.27;7.15;;;;;;;;;;10281988;28;20483;-77
2022/03/11 10:18:37;;;;;;;10.05;7.25;;;;;;;;;;10297836;28;20018;-75
2022/03/11 10:23:47;;;;;;;10.25;7.32;;;;;;;;;;10281977;28;20039;-71
2022/03/11 10:28:56;;;;;;;10.02;6.70;;;;;;;;;;10274191;28;20142;-75
2022/03/11 10:34:15;;;;;;;12.20;7.03;;;;;;;;;;10305977;28;20026;-71
2022/03/11 10:39:16;;;;;;;11.73;6.63;;;;;;;;;;10304722;28;20058;-70
2022/03/11 10:44:17;;;;;;;13.50;6.45;;;;;;;;;;10262743;28;20031;-70
2022/03/11 10:49:33;;;;;;;10.95;5.88;;;;;;;;;;10283654;28;20486;-74
2022/03/11 10:54:41;;;;;;;10.90;6.03;;;;;;;;;;10304119;28;20084;-72
2022/03/11 10:59:41;;;;;;;11.00;6.03;;;;;;;;;;10300265;28;20453;-75
2022/03/11 11:04:42;;;;;;;11.27;6.25;;;;;;;;;;10305560;28;20300;-71
2022/03/11 11:09:42;;;;;;;11.50;6.47;;;;;;;;;;10289077;28;20019;-70
2022/03/11 11:14:43;;;;;;;9.55;7.07;;;;;;;;;;10304183;28;20023;-70
2022/03/11 11:19:45;;;;;;;9.10;6.40;;;;;;;;;;10287964;28;20019;-70
2022/03/11 11:24:45;;;;;;;16.70;7.15;;;;;;;;;;10301606;28;20066;-71
2022/03/11 11:29:48;;;;;;;11.88;5.78;;;;;;;;;;10286948;28;20030;-73
2022/03/11 11:34:49;;;;;;;12.73;6.88;;;;;;;;;;10302196;28;20058;-75
2022/03/11 11:39:52;;;;;;;13.50;6.95;;;;;;;;;;10287597;28;20113;-73
2022/03/11 11:44:52;;;;;;;13.65;8.35;;;;;;;;;;10285078;28;20121;-71
2022/03/11 11:49:54;;;;;;;11.87;7.60;;;;;;;;;;10286878;28;20089;-71
2022/03/11 11:55:14;;;;;;;15.15;7.95;;;;;;;;;;10297637;28;20515;-69
2022/03/11 12:00:26;;;;;;;13.43;9.43;;;;;;;;;;10304130;28;20524;-70
2022/03/11 12:05:46;;;;;;;17.05;9.00;;;;;;;;;;10307086;28;20033;-77
2022/03/11 12:10:49;;;;;;;16.15;8.77;;;;;;;;;;10306785;28;20026;-74
2022/03/11 12:15:49;;;;;;;17.20;9.60;;;;;;;;;;10302469;28;20026;-71
2022/03/11 12:20:50;;;;;;;13.38;8.05;;;;;;;;;;10302171;28;20894;-71
2022/03/11 12:25:54;;;;;;;12.20;6.80;;;;;;;;;;10301440;28;20055;-71
2022/03/11 12:30:56;;;;;;;16.27;8.32;;;;;;;;;;10285370;28;20437;-71
2022/03/11 12:35:56;;;;;;;17.30;8.25;;;;;;;;;;10300537;28;20026;-74
2022/03/11 12:41:01;;;;;;;14.52;6.80;;;;;;;;;;10299658;28;20038;-73
2022/03/11 12:46:02;;;;;;;19.83;8.15;;;;;;;;;;10283782;28;20079;-71
2022/03/11 12:51:04;;;;;;;13.60;7.20;;;;;;;;;;10300743;28;20089;-76
2022/03/11 12:56:05;;;;;;;11.77;7.00;;;;;;;;;;10299133;28;20481;-70
2022/03/11 13:01:07;;;;;;;11.10;6.65;;;;;;;;;;10283629;28;20458;-72
2022/03/11 13:06:09;;;;;;;12.32;7.90;;;;;;;;;;10283965;28;20029;-70
2022/03/11 13:11:12;;;;;;;23.48;7.93;;;;;;;;;;10284109;28;20118;-71
2022/03/11 13:16:12;;;;;;;11.35;6.38;;;;;;;;;;10283297;28;20053;-71
2022/03/11 13:21:13;;;;;;;7.35;5.05;;;;;;;;;;10299669;28;20483;-71
2022/03/11 13:26:21;;;;;;;9.63;5.38;;;;;;;;;;10299121;28;20054;-71
2022/03/11 13:31:33;;;;;;;14.10;5.77;;;;;;;;;;10298207;28;20077;-71
2022/03/11 13:36:35;;;;;;;8.82;4.65;;;;;;;;;;10266001;28;20504;-71
2022/03/11 13:41:35;;;;;;;11.85;5.57;;;;;;;;;;10299604;28;20113;-71
2022/03/11 13:46:37;;;;;;;6.82;5.15;;;;;;;;;;10299049;28;20029;-71
2022/03/11 13:51:41;;;;;;;11.80;5.97;;;;;;;;;;10298487;28;20513;-70
2022/03/11 13:56:42;;;;;;;9.48;5.95;;;;;;;;;;10282744;28;20453;-71
2022/03/11 14:01:42;;;;;;;9.75;5.40;;;;;;;;;;10299010;28;20031;-70
2022/03/11 14:06:43;;;;;;;9.73;5.30;;;;;;;;;;10297977;28;20118;-75
2022/03/11 14:11:43;;;;;;;9.47;5.97;;;;;;;;;;10298904;28;20034;-71
2022/03/11 14:16:51;;;;;;;12.68;7.22;;;;;;;;;;10298173;28;20018;-71
2022/03/11 14:21:52;;;;;;;8.40;6.20;;;;;;;;;;10298603;28;20035;-72
2022/03/11 14:26:52;;;;;;;10.48;6.88;;;;;;;;;;10297765;28;20042;-70
2022/03/11 14:31:52;;;;;;;14.03;6.27;;;;;;;;;;10281147;28;20057;-73
2022/03/11 14:36:53;;;;;;;9.48;5.88;;;;;;;;;;10280083;28;20015;-71
2022/03/11 14:41:53;;;;;;;9.77;6.53;;;;;;;;;;10297314;28;20509;-73
2022/03/11 14:46:53;;;;;;;10.63;6.43;;;;;;;;;;10280843;28;20089;-71
2022/03/11 14:51:54;;;;;;;16.07;7.80;;;;;;;;;;10295230;28;20078;-71
2022/03/11 14:56:54;;;;;;;27.30;7.57;;;;;;;;;;10296560;28;20281;-71
2022/03/11 15:01:54;;;;;;;17.63;7.80;;;;;;;;;;10296122;28;20508;-70
2022/03/11 15:06:55;;;;;;;9.33;5.43;;;;;;;;;;10278240;28;20618;-70
2022/03/11 15:11:55;;;;;;;14.33;7.27;;;;;;;;;;10293709;28;20305;-72
2022/03/11 15:16:55;;;;;;;12.90;7.63;;;;;;;;;;10277669;28;20536;-71
2022/03/11 15:21:55;;;;;;;14.27;7.73;;;;;;;;;;10304283;28;20030;-70
2022/03/11 15:26:59;;;;;;;14.57;8.15;;;;;;;;;;10303915;28;20058;-74
2022/03/11 15:31:59;;;;;;;11.23;7.50;;;;;;;;;;10286043;28;20059;-72
2022/03/11 15:36:59;;;;;;;13.40;8.77;;;;;;;;;;10288795;28;20022;-73
2022/03/11 15:42:00;;;;;;;16.70;8.43;;;;;;;;;;10303576;28;20027;-75
2022/03/11 15:47:00;;;;;;;16.33;7.07;;;;;;;;;;10303122;28;20124;-73
2022/03/11 15:52:01;;;;;;;11.82;8.93;;;;;;;;;;10286759;28;20023;-74
2022/03/11 15:57:01;;;;;;;17.73;9.88;;;;;;;;;;10285804;28;20038;-70
2022/03/11 16:02:01;;;;;;;19.00;11.73;;;;;;;;;;10279155;28;20031;-72
2022/03/11 16:07:02;;;;;;;20.40;10.40;;;;;;;;;;10297340;28;20485;-70
2022/03/11 16:12:02;;;;;;;19.97;10.73;;;;;;;;;;10302357;28;20452;-71
2022/03/11 16:17:03;;;;;;;18.77;11.45;;;;;;;;;;10300467;28;20401;-70
2022/03/11 16:22:04;;;;;;;17.67;12.57;;;;;;;;;;10301045;28;20026;-71
2022/03/11 16:27:04;;;;;;;16.83;11.90;;;;;;;;;;10284471;28;20047;-71
2022/03/11 16:32:05;;;;;;;13.70;10.43;;;;;;;;;;10282817;28;20117;-75
2022/03/11 16:37:05;;;;;;;17.55;12.27;;;;;;;;;;10300893;28;20038;-71
2022/03/11 16:42:06;;;;;;;28.20;11.15;;;;;;;;;;10300689;28;20037;-71
2022/03/11 16:47:08;;;;;;;17.55;10.20;;;;;;;;;;10292839;28;20038;-72
2022/03/11 16:52:09;;;;;;;18.42;11.73;;;;;;;;;;10297019;28;20560;-71
2022/03/11 16:57:09;;;;;;;24.20;10.02;;;;;;;;;;10280948;28;20488;-70
2022/03/11 17:02:11;;;;;;;28.90;10.90;;;;;;;;;;10286636;28;20018;-71
2022/03/11 17:07:11;;;;;;;23.58;13.45;;;;;;;;;;10284237;28;20802;-71
2022/03/11 17:12:13;;;;;;;18.97;12.57;;;;;;;;;;10283194;28;20027;-71
2022/03/11 17:17:14;;;;;;;18.67;12.15;;;;;;;;;;10283961;28;20625;-72
2022/03/11 17:22:14;;;;;;;21.30;11.50;;;;;;;;;;10299696;28;20038;-70
2022/03/11 17:27:14;;;;;;;14.93;11.10;;;;;;;;;;10296266;28;20672;-76
2022/03/11 17:32:16;;;;;;;17.85;12.77;;;;;;;;;;10298132;28;20046;-70
2022/03/11 17:37:16;;;;;;;17.50;11.07;;;;;;;;;;10298406;28;20023;-70
2022/03/11 17:42:17;;;;;;;15.10;10.32;;;;;;;;;;10284309;28;20026;-70
2022/03/11 17:47:18;;;;;;;17.33;9.95;;;;;;;;;;10283562;28;20027;-73
2022/03/11 17:52:18;;;;;;;11.38;9.40;;;;;;;;;;10282464;28;20054;-70
2022/03/11 17:57:19;;;;;;;26.95;13.65;;;;;;;;;;10284480;28;20030;-70
2022/03/11 18:02:20;;;;;;;18.55;11.02;;;;;;;;;;10295498;28;20027;-74
2022/03/11 18:07:20;;;;;;;21.23;11.98;;;;;;;;;;10279318;28;20106;-73
2022/03/11 18:12:21;;;;;;;17.70;11.13;;;;;;;;;;10270285;28;20416;-71
2022/03/11 18:17:23;;;;;;;12.90;8.70;;;;;;;;;;10282865;28;20015;-73
2022/03/11 18:22:23;;;;;;;19.30;10.05;;;;;;;;;;10247666;28;20529;-72
2022/03/11 18:27:24;;;;;;;10.73;9.13;;;;;;;;;;10248211;28;20146;-71
2022/03/11 18:32:25;;;;;;;21.90;13.20;;;;;;;;;;10298031;28;20033;-71
2022/03/11 18:37:25;;;;;;;13.77;9.70;;;;;;;;;;10297573;28;20564;-71
2022/03/11 18:42:26;;;;;;;13.25;8.95;;;;;;;;;;10281238;28;20082;-71
2022/03/11 18:47:27;;;;;;;16.50;9.45;;;;;;;;;;10297129;28;20469;-70
2022/03/11 18:52:27;;;;;;;13.53;8.50;;;;;;;;;;10300119;28;20034;-71
2022/03/11 18:57:28;;;;;;;13.23;8.50;;;;;;;;;;10278000;28;20855;-73
2022/03/11 19:02:28;;;;;;;13.00;8.97;;;;;;;;;;10281985;28;20070;-70
2022/03/11 19:07:28;;;;;;;22.35;11.40;;;;;;;;;;10282357;28;20181;-72
2022/03/11 19:12:29;;;;;;;14.43;9.20;;;;;;;;;;10281048;28;20021;-69
2022/03/11 19:17:29;;;;;;;24.05;13.45;;;;;;;;;;10415467;23;20146;-70
2022/03/11 19:22:29;;;;;;;18.23;11.13;;;;;;;;;;10319521;28;20436;-73
2022/03/11 19:27:29;;;;;;;13.10;9.10;;;;;;;;;;10325147;28;20030;-73
2022/03/11 19:32:33;;;;;;;19.43;10.13;;;;;;;;;;10294315;28;20113;-73
2022/03/11 19:37:34;;;;;;;15.25;9.82;;;;;;;;;;10282988;28;20015;-73
2022/03/11 19:42:34;;;;;;;14.60;9.80;;;;;;;;;;10278296;28;20027;-70
2022/03/11 19:47:35;;;;;;;16.53;11.70;;;;;;;;;;10278869;28;20023;-71
2022/03/11 19:52:35;;;;;;;16.25;10.38;;;;;;;;;;10278837;28;20278;-71
2022/03/11 19:57:35;;;;;;;15.40;10.77;;;;;;;;;;10283301;28;20046;-72
2022/03/11 20:02:36;;;;;;;14.48;9.73;;;;;;;;;;10303592;28;20027;-74
2022/03/11 20:07:37;;;;;;;15.68;10.10;;;;;;;;;;10285737;28;20027;-71
2022/03/11 20:12:41;;;;;;;20.60;10.45;;;;;;;;;;10281738;28;20071;-69
2022/03/11 20:17:44;;;;;;;15.60;10.57;;;;;;;;;;10300196;28;20541;-72
2022/03/11 20:22:44;;;;;;;20.90;13.57;;;;;;;;;;10284881;28;20041;-69
2022/03/11 20:27:45;;;;;;;26.63;17.07;;;;;;;;;;10294105;28;20024;-70
2022/03/11 20:32:45;;;;;;;21.55;13.45;;;;;;;;;;10291876;28;20035;-75
2022/03/11 20:37:46;;;;;;;14.37;9.23;;;;;;;;;;10282259;28;20026;-73
2022/03/11 20:42:47;;;;;;;17.58;11.13;;;;;;;;;;10284725;28;20165;-73
2022/03/11 20:47:47;;;;;;;13.60;10.88;;;;;;;;;;10284925;28;20026;-75
2022/03/11 20:52:48;;;;;;;35.17;18.48;;;;;;;;;;10291073;28;20041;-73
2022/03/11 20:57:48;;;;;;;24.40;18.50;;;;;;;;;;10283424;28;20029;-71
2022/03/11 21:02:48;;;;;;;24.40;15.90;;;;;;;;;;10271444;28;20041;-71
2022/03/11 21:07:49;;;;;;;35.33;21.83;;;;;;;;;;10283851;28;20022;-69
2022/03/11 21:12:51;;;;;;;28.83;20.85;;;;;;;;;;10282882;28;20474;-70
2022/03/11 21:17:52;;;;;;;26.85;17.15;;;;;;;;;;10297767;28;20454;-74
2022/03/11 21:22:54;;;;;;;32.22;17.10;;;;;;;;;;10280181;28;20062;-70
2022/03/11 21:27:54;;;;;;;30.25;17.38;;;;;;;;;;10289673;28;20672;-64
2022/03/11 21:32:55;;;;;;;24.35;18.67;;;;;;;;;;10297658;28;20131;-70
2022/03/11 21:37:56;;;;;;;28.92;21.33;;;;;;;;;;10282486;28;20054;-70
2022/03/11 21:42:57;;;;;;;25.70;17.58;;;;;;;;;;10282179;28;20034;-69
2022/03/11 21:47:57;;;;;;;20.45;15.05;;;;;;;;;;10249390;28;20039;-73
2022/03/11 21:52:57;;;;;;;21.77;17.63;;;;;;;;;;10293853;28;20048;-70
2022/03/11 21:57:58;;;;;;;28.10;16.95;;;;;;;;;;10282083;28;20034;-71
2022/03/11 22:02:58;;;;;;;28.27;16.43;;;;;;;;;;10282007;28;20027;-69
2022/03/11 22:08:00;;;;;;;29.80;18.20;;;;;;;;;;10278649;28;20031;-69
2022/03/11 22:13:01;;;;;;;22.23;15.88;;;;;;;;;;10289226;28;20029;-72
2022/03/11 22:18:02;;;;;;;30.33;16.67;;;;;;;;;;10296775;28;20078;-72
2022/03/11 22:23:02;;;;;;;22.20;14.88;;;;;;;;;;10281644;28;20109;-74
2022/03/11 22:28:02;;;;;;;22.33;16.67;;;;;;;;;;10301980;28;20114;-70
2022/03/11 22:33:03;;;;;;;28.35;20.35;;;;;;;;;;10285491;28;20069;-70
2022/03/11 22:38:05;;;;;;;27.30;19.13;;;;;;;;;;10287857;28;20077;-74
2022/03/11 22:43:06;;;;;;;24.60;18.00;;;;;;;;;;10287461;28;20046;-71
2022/03/11 22:48:07;;;;;;;25.00;18.63;;;;;;;;;;10265070;28;20114;-74
2022/03/11 22:53:07;;;;;;;26.38;23.58;;;;;;;;;;10286543;28;20027;-71
2022/03/11 22:58:13;;;;;;;25.13;16.45;;;;;;;;;;10287992;28;20118;-70
2022/03/11 23:03:17;;;;;;;29.08;17.15;;;;;;;;;;10304771;28;20065;-74
2022/03/11 23:13:37;;;;;;;22.80;19.65;;;;;;;;;;10287553;28;20030;-69
2022/03/11 23:18:37;;;;;;;19.13;15.27;;;;;;;;;;10303768;28;20047;-73
2022/03/11 23:23:38;;;;;;;22.33;19.98;;;;;;;;;;10287659;28;20052;-69
2022/03/11 23:28:38;;;;;;;21.77;18.00;;;;;;;;;;10288491;28;20038;-68
2022/03/11 23:33:38;;;;;;;27.15;24.50;;;;;;;;;;10279220;28;20394;-70
2022/03/11 23:38:40;;;;;;;26.48;21.70;;;;;;;;;;10298389;28;20027;-69
2022/03/11 23:43:41;;;;;;;30.63;22.88;;;;;;;;;;10302984;28;20482;-69
2022/03/11 23:48:42;;;;;;;24.80;16.33;;;;;;;;;;10302449;28;20022;-71
2022/03/11 23:53:42;;;;;;;24.42;16.77;;;;;;;;;;10302660;28;20085;-70
2022/03/11 23:58:43;;;;;;;28.05;22.45;;;;;;;;;;10285098;28;20484;-69
